Time;durP1;ratioP1;P1;durP2;ratioP2;P2;SDS_P1;SDS_P2;PMS_P1;PMS_P2;Temp;Humidity;BMP_temperature;BMP_pressure;BME280_temperature;BME280_humidity;BME280_pressure;Samples;Min_cycle;Max_cycle;Signal;HPM_P1;HPM_P2
2023/10/16 00:01:31;;;;;;;3.30;1.50;;;;;;;7.16;75.02;98333.77;105125;1266;61177;-21
2023/10/16 00:04:00;;;;;;;1.90;0.90;;;;;;;7.11;74.83;98330.59;104842;1267;61159;-21
2023/10/16 00:06:28;;;;;;;5.20;1.30;;;;;;;6.94;75.63;98332.09;104887;1266;71161;-21
2023/10/16 00:16:24;;;;;;;1.90;1.00;;;;;;;6.18;78.86;98343.38;102674;1292;600100;-23
2023/10/16 00:18:53;;;;;;;3.30;1.30;;;;;;;6.51;78.78;98347.38;104844;1271;61259;-24
2023/10/16 00:21:24;;;;;;;3.00;1.40;;;;;;;6.99;76.69;98354.82;104849;1264;61149;-24
2023/10/16 00:23:54;;;;;;;4.80;1.50;;;;;;;6.98;75.77;98357.83;104893;1265;71029;-24
2023/10/16 00:26:23;;;;;;;4.40;1.80;;;;;;;6.78;76.28;98354.38;104891;1270;73223;-23
2023/10/16 00:35:52;;;;;;;3.10;1.10;;;;;;;6.04;79.30;98338.13;102467;1295;616163;-23
2023/10/16 00:38:22;;;;;;;4.90;1.40;;;;;;;6.43;78.88;98342.88;104815;1268;61134;-23
2023/10/16 00:43:35;;;;;;;4.70;1.70;;;;;;;6.85;75.99;98357.95;104866;1270;72279;-23
2023/10/16 00:46:06;;;;;;;9.90;1.80;;;;;;;6.68;76.15;98358.21;104812;1276;74397;-22
2023/10/16 00:48:33;;;;;;;2.00;1.30;;;;;;;6.38;77.11;98359.59;102532;1269;3120598;-23
2023/10/16 00:51:06;;;;;;;3.50;1.40;;;;;;;6.21;77.69;98358.09;104854;1268;61298;-23
2023/10/16 00:53:33;;;;;;;4.50;1.40;;;;;;;6.04;78.48;98346.45;105006;1261;61217;-23
2023/10/16 00:56:02;;;;;;;3.50;1.10;;;;;;;5.90;79.12;98339.88;105143;1261;72219;-23
2023/10/16 00:58:29;;;;;;;2.70;1.00;;;;;;;6.29;78.21;98339.52;105057;1261;74329;-23
2023/10/16 01:01:02;;;;;;;3.20;1.30;;;;;;;6.76;76.09;98338.98;105226;1261;72329;-23
2023/10/16 01:03:31;;;;;;;3.80;1.40;;;;;;;6.74;75.60;98345.34;105034;1265;61243;-23
2023/10/16 01:05:58;;;;;;;2.10;0.90;;;;;;;6.55;75.99;98349.04;105134;1264;61177;-23
2023/10/16 01:08:25;;;;;;;4.70;1.20;;;;;;;6.38;76.45;98353.92;105081;1264;73155;-23
2023/10/16 01:10:57;;;;;;;2.80;1.20;;;;;;;6.21;77.37;98343.27;105165;1265;74274;-23
2023/10/16 01:13:28;;;;;;;3.40;1.10;;;;;;;6.03;77.91;98329.77;105080;1264;72629;-22
2023/10/16 01:15:56;;;;;;;4.20;0.90;;;;;;;5.88;78.86;98325.35;105147;1266;60997;-23
2023/10/16 01:18:23;;;;;;;2.80;1.00;;;;;;;6.29;77.98;98327.54;105551;1260;61125;-23
2023/10/16 01:20:51;;;;;;;5.90;1.40;;;;;;;6.75;75.84;98327.02;105616;1258;72809;-23
2023/10/16 01:23:19;;;;;;;3.70;1.10;;;;;;;6.75;75.48;98325.44;105507;1262;74540;-23
2023/10/16 01:25:48;;;;;;;6.20;1.10;;;;;;;6.51;75.80;98331.77;105300;1257;72643;-22
2023/10/16 01:28:16;;;;;;;3.80;1.30;;;;;;;6.26;76.58;98335.85;105517;1263;61168;-22
2023/10/16 01:30:45;;;;;;;3.10;1.50;;;;;;;6.12;77.37;98341.05;105464;1257;61112;-23
2023/10/16 01:33:13;;;;;;;2.50;1.50;;;;;;;5.86;78.13;98331.83;105307;1260;71364;-23
2023/10/16 01:35:40;;;;;;;1.20;1.10;;;;;;;5.78;78.92;98326.40;105440;1257;74327;-23
2023/10/16 01:38:15;;;;;;;4.10;1.10;;;;;;;6.16;78.09;98322.30;105161;1257;72396;-23
2023/10/16 01:43:35;;;;;;;6.00;1.80;;;;;;;6.60;75.81;98339.70;105522;1262;61205;-23
2023/10/16 01:46:09;;;;;;;3.00;1.50;;;;;;;6.44;76.48;98337.79;105329;1264;72941;-22
2023/10/16 01:48:42;;;;;;;3.70;1.40;;;;;;;6.20;77.38;98331.61;105458;1262;74103;-22
2023/10/16 01:51:09;;;;;;;4.60;1.80;;;;;;;5.99;78.36;98325.05;105534;1263;72606;-22
2023/10/16 01:53:36;;;;;;;3.50;1.00;;;;;;;5.86;79.04;98323.23;105614;1261;61215;-22
2023/10/16 01:56:12;;;;;;;1.30;1.00;;;;;;;6.24;78.68;98322.92;105617;1270;61197;-22
2023/10/16 01:58:44;;;;;;;5.20;1.50;;;;;;;6.77;76.72;98324.53;105298;1263;72825;-22
2023/10/16 02:01:14;;;;;;;5.10;1.80;;;;;;;6.79;75.90;98319.44;105302;1257;72887;-22
2023/10/16 02:03:44;;;;;;;2.60;1.60;;;;;;;6.56;76.47;98322.20;105488;1263;72487;-22
2023/10/16 02:06:12;;;;;;;4.80;1.80;;;;;;;6.32;77.36;98330.23;105410;1264;61200;-22
2023/10/16 02:08:39;;;;;;;7.00;2.00;;;;;;;6.10;78.41;98334.30;105165;1264;61247;-22
2023/10/16 02:11:07;;;;;;;3.30;2.30;;;;;;;5.95;79.24;98337.71;105229;1263;73012;-22
2023/10/16 02:13:37;;;;;;;5.80;1.60;;;;;;;5.87;80.04;98348.86;105025;1266;73289;-22
2023/10/16 02:16:06;;;;;;;2.20;1.30;;;;;;;6.28;78.92;98351.91;105152;1257;74050;-22
2023/10/16 02:18:37;;;;;;;7.00;2.30;;;;;;;6.63;77.06;98349.14;105311;1258;61074;-23
2023/10/16 02:21:05;;;;;;;6.00;2.00;;;;;;;6.65;76.61;98347.52;105269;1258;61845;-22
2023/10/16 02:23:32;;;;;;;7.50;2.00;;;;;;;6.54;76.96;98348.45;105542;1258;73000;-22
2023/10/16 02:26:01;;;;;;;4.20;1.80;;;;;;;6.33;77.70;98352.19;105418;1257;74580;-22
2023/10/16 02:28:31;;;;;;;5.90;2.50;;;;;;;6.16;78.68;98352.29;105145;1261;71533;-22
2023/10/16 02:31:18;;;;;;;5.20;2.10;;;;;;;5.95;79.28;98345.86;105289;1261;61151;-23
2023/10/16 02:33:50;;;;;;;4.50;1.80;;;;;;;5.80;80.44;98337.98;105320;1262;61496;-22
2023/10/16 02:36:21;;;;;;;3.90;1.80;;;;;;;6.37;79.08;98335.70;105097;1263;72892;-22
2023/10/16 02:38:48;;;;;;;3.20;1.20;;;;;;;6.74;76.91;98334.14;105210;1263;74175;-22
2023/10/16 02:41:19;;;;;;;4.40;1.90;;;;;;;6.74;76.64;98329.80;105166;1257;72624;-23
2023/10/16 02:43:48;;;;;;;6.90;2.40;;;;;;;6.55;77.16;98329.57;105115;1264;62707;-23
2023/10/16 02:46:21;;;;;;;3.20;1.80;;;;;;;6.31;78.02;98329.64;105399;1261;61064;-22
2023/10/16 02:48:48;;;;;;;6.50;2.50;;;;;;;6.11;79.03;98327.49;105433;1261;73476;-22
2023/10/16 02:51:18;;;;;;;8.30;2.60;;;;;;;5.88;79.98;98330.88;105568;1257;74354;-22
2023/10/16 02:53:48;;;;;;;5.90;2.00;;;;;;;5.75;80.76;98334.58;105479;1258;72555;-22
2023/10/16 02:56:15;;;;;;;5.80;2.10;;;;;;;6.22;80.04;98335.66;105072;1260;61409;-22
2023/10/16 02:58:54;;;;;;;5.80;2.30;;;;;;;6.69;78.21;98335.40;105139;1260;61186;-22
2023/10/16 03:01:21;;;;;;;5.30;2.00;;;;;;;6.53;77.65;98342.27;105431;1257;72943;-22
2023/10/16 03:03:49;;;;;;;7.70;2.70;;;;;;;6.37;77.87;98348.14;105122;1257;74372;-23
2023/10/16 03:06:16;;;;;;;3.60;2.30;;;;;;;6.17;78.86;98341.99;105181;1257;72624;-22
2023/10/16 03:08:49;;;;;;;5.60;2.40;;;;;;;6.02;79.39;98348.25;105131;1257;61107;-22
2023/10/16 03:11:17;;;;;;;6.90;3.20;;;;;;;5.83;80.34;98348.64;105190;1258;61174;-22
2023/10/16 03:13:47;;;;;;;3.60;1.90;;;;;;;5.76;81.20;98349.29;105088;1265;73575;-22
2023/10/16 03:16:22;;;;;;;3.10;2.00;;;;;;;6.36;79.85;98345.59;105151;1258;76156;-22
2023/10/16 03:18:50;;;;;;;5.60;2.10;;;;;;;6.76;77.57;98338.30;105307;1257;73225;-24
2023/10/16 03:23:45;;;;;;;6.50;2.50;;;;;;;6.42;78.23;98333.11;105203;1261;61125;-22
2023/10/16 03:28:48;;;;;;;5.30;2.30;;;;;;;5.95;80.09;98341.85;105068;1263;74834;-22
2023/10/16 03:31:15;;;;;;;5.80;1.80;;;;;;;5.80;80.87;98336.91;105146;1260;72826;-22
2023/10/16 03:33:43;;;;;;;4.40;2.00;;;;;;;6.02;80.81;98344.31;105146;1257;61067;-22
2023/10/16 03:36:11;;;;;;;6.70;2.60;;;;;;;6.29;79.46;98346.66;105139;1261;61148;-22
2023/10/16 03:38:41;;;;;;;6.10;2.20;;;;;;;6.37;78.80;98355.15;105129;1258;72848;-22
2023/10/16 03:43:48;;;;;;;4.50;2.70;;;;;;;5.99;79.92;98354.52;105200;1261;71706;-23
2023/10/16 03:46:14;;;;;;;7.20;3.20;;;;;;;5.82;80.66;98360.05;105334;1258;61152;-23
2023/10/16 03:48:41;;;;;;;6.10;2.00;;;;;;;5.73;81.34;98354.52;105464;1257;61129;-23
2023/10/16 03:51:08;;;;;;;4.30;1.30;;;;;;;6.16;80.40;98356.87;105399;1257;72897;-23
2023/10/16 03:53:35;;;;;;;6.00;2.20;;;;;;;6.51;78.40;98356.40;105161;1257;74265;-23
2023/10/16 03:56:04;;;;;;;5.30;1.90;;;;;;;6.44;77.78;98351.95;105119;1259;72532;-23
2023/10/16 03:58:40;;;;;;;4.20;2.70;;;;;;;6.26;78.45;98353.77;105082;1260;61278;-23
2023/10/16 04:01:08;;;;;;;5.50;2.50;;;;;;;6.04;79.32;98349.20;105146;1257;61171;-23
2023/10/16 04:03:47;;;;;;;4.40;2.60;;;;;;;5.85;80.09;98354.88;105143;1260;73043;-23
2023/10/16 04:06:19;;;;;;;5.50;2.00;;;;;;;5.66;80.87;98349.15;105309;1261;74382;-23
2023/10/16 04:08:49;;;;;;;5.50;2.10;;;;;;;6.03;80.36;98342.89;105176;1258;72692;-23
2023/10/16 04:11:17;;;;;;;4.80;2.20;;;;;;;6.28;78.57;98341.73;105074;1257;61281;-23
2023/10/16 04:13:50;;;;;;;5.80;2.60;;;;;;;6.24;78.35;98343.88;105103;1263;61134;-23
2023/10/16 04:21:51;;;;;;;6.40;2.80;;;;;;;5.62;80.57;98356.80;105562;1257;72667;-23
2023/10/16 04:32:37;;;;;;;5.10;2.30;;;;;;;6.13;78.33;98366.09;105118;1258;74436;-23
2023/10/16 04:37:54;;;;;;;6.60;2.80;;;;;;;5.64;79.97;98375.43;105104;1263;61177;-23
2023/10/16 04:43:37;;;;;;;5.30;2.30;;;;;;;5.41;81.57;98376.93;105320;1258;73034;-23
2023/10/16 04:46:54;;;;;;;4.50;1.70;;;;;;;5.94;79.87;98375.73;105517;1258;74197;-23
2023/10/16 04:48:52;;;;;;;3.80;2.60;;;;;;;6.15;78.15;98377.35;105367;1262;72685;-23
2023/10/16 04:51:36;;;;;;;7.40;2.60;;;;;;;6.02;78.24;98378.46;105279;1258;61155;-23
2023/10/16 04:54:45;;;;;;;7.10;2.20;;;;;;;5.67;79.20;98378.88;105086;1258;61112;-23
2023/10/16 05:00:12;;;;;;;8.40;3.70;;;;;;;5.14;81.42;98379.30;105496;1258;74083;-23
2023/10/16 05:02:52;;;;;;;6.00;2.20;;;;;;;5.10;82.46;98381.13;105383;1257;72520;-23
2023/10/16 05:11:23;;;;;;;2.80;2.10;;;;;;;5.61;80.09;98388.59;105106;1260;73709;-23
2023/10/16 05:16:47;;;;;;;3.60;2.00;;;;;;;5.27;81.47;98394.60;105139;1257;72786;-23
2023/10/16 05:22:02;;;;;;;5.40;2.40;;;;;;;5.69;80.56;98404.04;105524;1260;61109;-23
2023/10/16 06:14:22;;;;;;;3.10;2.00;;;;;;;5.86;77.84;98434.00;105191;1260;61275;-23
2023/10/16 06:16:53;;;;;;;3.90;1.90;;;;;;;5.77;79.08;98448.77;105201;1260;62647;-23
2023/10/16 06:19:19;;;;;;;7.30;2.30;;;;;;;5.62;78.95;98440.36;105076;1258;73705;-23
2023/10/16 06:21:56;;;;;;;5.60;2.60;;;;;;;5.42;79.61;98443.81;105337;1256;74213;-23
2023/10/16 06:24:25;;;;;;;4.50;2.00;;;;;;;5.56;79.15;98439.86;105124;1257;72745;-23
2023/10/16 06:26:53;;;;;;;5.30;2.20;;;;;;;5.87;77.80;98443.59;105227;1256;61140;-23
2023/10/16 06:29:21;;;;;;;3.40;2.00;;;;;;;5.69;77.25;98442.06;105101;1261;61235;-23
2023/10/16 06:31:53;;;;;;;4.90;2.50;;;;;;;5.57;77.47;98437.60;105095;1257;73817;-23
2023/10/16 06:34:23;;;;;;;8.40;2.40;;;;;;;5.36;78.21;98444.91;105133;1263;75523;-23
2023/10/16 06:36:55;;;;;;;6.40;3.10;;;;;;;5.26;79.23;98448.83;105169;1257;72761;-23
2023/10/16 06:39:22;;;;;;;6.30;1.90;;;;;;;5.35;79.89;98454.09;105083;1259;61122;-22
2023/10/16 06:41:53;;;;;;;7.80;2.50;;;;;;;5.69;77.77;98445.21;105248;1260;61190;-22
2023/10/16 06:44:28;;;;;;;5.40;2.20;;;;;;;5.84;77.34;98448.77;105213;1257;74467;-23
2023/10/16 06:46:59;;;;;;;3.30;2.20;;;;;;;5.78;77.20;98448.71;105122;1256;74230;-22
2023/10/16 06:49:30;;;;;;;7.80;2.50;;;;;;;5.60;77.48;98453.55;105108;1257;72484;-23
2023/10/16 06:51:57;;;;;;;10.20;2.60;;;;;;;5.52;78.10;98447.41;105127;1256;61163;-22
2023/10/16 06:54:25;;;;;;;5.40;2.10;;;;;;;5.42;79.46;98457.56;105237;1260;61202;-22
2023/10/16 06:56:52;;;;;;;4.30;2.00;;;;;;;5.78;77.93;98456.81;105081;1256;73632;-22
2023/10/16 06:59:21;;;;;;;4.60;2.40;;;;;;;6.24;76.13;98452.67;105431;1260;74383;-22
2023/10/16 07:01:50;;;;;;;8.90;2.40;;;;;;;6.17;75.62;98456.30;105086;1259;73078;-23
2023/10/16 07:04:19;;;;;;;5.90;2.20;;;;;;;6.22;75.49;98456.62;105220;1256;61166;-22
2023/10/16 07:06:48;;;;;;;4.60;1.90;;;;;;;6.05;75.67;98462.83;105201;1260;61167;-22
2023/10/16 07:09:16;;;;;;;7.20;2.70;;;;;;;5.93;75.69;98452.30;105147;1257;73831;-22
2023/10/16 07:11:43;;;;;;;3.90;2.30;;;;;;;5.75;76.85;98459.92;105409;1257;74937;-22
2023/10/16 07:14:12;;;;;;;6.30;2.70;;;;;;;5.62;77.26;98463.25;105493;1256;71595;-23
2023/10/16 07:16:42;;;;;;;3.40;2.20;;;;;;;5.97;77.06;98457.58;105197;1256;61213;-23
2023/10/16 07:19:16;;;;;;;5.70;2.40;;;;;;;6.36;75.27;98464.04;105150;1260;61200;-22
2023/10/16 07:21:48;;;;;;;3.20;1.60;;;;;;;6.43;74.91;98458.68;105091;1257;73783;-22
2023/10/16 07:24:15;;;;;;;5.50;2.30;;;;;;;6.22;74.94;98464.02;105156;1256;72981;-23
2023/10/16 07:26:44;;;;;;;9.40;3.10;;;;;;;6.15;75.59;98457.30;105171;1257;72784;-22
2023/10/16 07:29:14;;;;;;;4.80;2.10;;;;;;;6.20;76.61;98456.56;105037;1258;61075;-22
2023/10/16 07:31:41;;;;;;;6.40;2.20;;;;;;;6.29;75.98;98449.19;105218;1256;61103;-22
2023/10/16 07:34:08;;;;;;;3.70;2.00;;;;;;;6.46;75.72;98460.37;105203;1256;73809;-22
2023/10/16 07:36:35;;;;;;;10.40;2.50;;;;;;;6.86;74.55;98465.73;105224;1256;74115;-22
2023/10/16 07:39:03;;;;;;;5.80;2.90;;;;;;;6.77;73.14;98456.21;105392;1256;72670;-22
2023/10/16 07:41:33;;;;;;;5.80;2.70;;;;;;;6.46;73.92;98465.77;105273;1257;61157;-23
2023/10/16 07:44:04;;;;;;;6.90;3.00;;;;;;;6.19;75.15;98468.16;105453;1258;61106;-22
2023/10/16 07:46:31;;;;;;;5.90;2.90;;;;;;;5.90;76.19;98471.09;105287;1256;73789;-22
2023/10/16 07:49:04;;;;;;;5.80;2.70;;;;;;;5.76;77.86;98477.80;105128;1256;74349;-22
2023/10/16 07:51:32;;;;;;;;;;;;;;;6.07;77.55;98469.27;105113;1257;71490;-22
2023/10/16 07:54:00;;;;;;;3.70;2.00;;;;;;;6.52;75.29;98461.04;105180;1256;61157;-23
2023/10/16 07:56:30;;;;;;;4.20;2.60;;;;;;;6.59;75.42;98464.58;105183;1260;61222;-22
2023/10/16 07:59:06;;;;;;;6.70;3.40;;;;;;;6.63;75.25;98464.35;105126;1256;74420;-22
2023/10/16 08:04:27;;;;;;;7.30;3.90;;;;;;;6.16;76.30;98472.26;105122;1257;72523;-23
2023/10/16 08:07:04;;;;;;;8.10;4.10;;;;;;;5.82;78.40;98466.15;105287;1258;61164;-22
2023/10/16 08:12:12;;;;;;;8.90;2.80;;;;;;;6.11;78.64;98474.46;105544;1262;72201;-22
2023/10/16 08:14:42;;;;;;;5.60;3.30;;;;;;;6.11;78.73;98476.02;105544;1257;75592;-23
2023/10/16 08:17:17;;;;;;;6.60;3.90;;;;;;;5.83;79.56;98484.86;105467;1253;72619;-23
2023/10/16 08:19:45;;;;;;;7.30;3.60;;;;;;;5.54;80.41;98486.67;105782;1253;61160;-23
2023/10/16 08:22:15;;;;;;;7.00;3.30;;;;;;;5.47;81.91;98490.30;105757;1257;61139;-25
2023/10/16 08:24:57;;;;;;;6.10;2.80;;;;;;;5.73;80.98;98484.17;105253;1253;75291;-24
2023/10/16 08:30:17;;;;;;;7.10;3.30;;;;;;;6.24;78.85;98486.69;105456;1253;72797;-23
2023/10/16 08:35:19;;;;;;;4.30;2.50;;;;;;;5.73;79.46;98482.46;105506;1253;61167;-23
2023/10/16 08:37:59;;;;;;;5.60;3.40;;;;;;;5.60;81.14;98490.95;105575;1253;74004;-23
2023/10/16 08:40:32;;;;;;;6.50;2.40;;;;;;;5.76;81.99;98491.34;105550;1253;74767;-23
2023/10/16 08:43:01;;;;;;;3.20;2.40;;;;;;;6.30;79.99;98487.91;105518;1253;73418;-23
2023/10/16 08:45:29;;;;;;;7.10;2.80;;;;;;;6.36;78.62;98483.33;105170;1253;61174;-22
2023/10/16 08:47:58;;;;;;;7.60;3.30;;;;;;;6.22;79.00;98487.33;105403;1258;61802;-23
2023/10/16 08:50:40;;;;;;;5.50;3.10;;;;;;;6.05;79.79;98486.80;105382;1253;73862;-23
2023/10/16 08:56:03;;;;;;;6.00;2.40;;;;;;;5.94;81.49;98495.11;105425;1259;72553;-22
2023/10/16 08:58:35;;;;;;;3.30;2.40;;;;;;;6.39;79.24;98487.97;105311;1260;61068;-23
2023/10/16 09:01:07;;;;;;;7.90;3.50;;;;;;;6.23;77.97;98481.52;105244;1253;61104;-23
2023/10/16 09:04:02;;;;;;;5.10;2.70;;;;;;;6.21;79.04;98491.84;105296;1253;73714;-23
2023/10/16 09:06:34;;;;;;;5.10;3.10;;;;;;;5.93;79.77;98491.05;105295;1254;75533;-23
2023/10/16 09:09:01;;;;;;;5.90;3.00;;;;;;;5.71;80.16;98494.98;105317;1255;71485;-23
2023/10/16 09:11:29;;;;;;;5.80;2.50;;;;;;;5.85;81.12;98496.05;105500;1253;61802;-23
2023/10/16 09:13:56;;;;;;;3.60;2.90;;;;;;;6.23;80.09;98496.91;105504;1260;61871;-23
2023/10/16 09:16:24;;;;;;;3.40;1.90;;;;;;;6.15;79.42;98495.71;105328;1253;74257;-23
2023/10/16 09:18:53;;;;;;;4.30;3.20;;;;;;;6.01;80.36;98500.84;105375;1260;74270;-23
2023/10/16 09:21:23;;;;;;;3.10;2.50;;;;;;;5.89;81.30;98502.00;105459;1254;71596;-23
2023/10/16 09:23:53;;;;;;;5.30;2.10;;;;;;;5.76;81.73;98503.12;105499;1253;61094;-23
2023/10/16 09:26:32;;;;;;;3.60;2.40;;;;;;;5.91;81.56;98497.90;105567;1258;61232;-23
2023/10/16 09:29:15;;;;;;;5.10;2.80;;;;;;;6.17;80.59;98504.57;105764;1258;73705;-23
2023/10/16 09:31:46;;;;;;;3.20;2.50;;;;;;;6.09;80.85;98508.91;105898;1252;75245;-23
2023/10/16 09:34:16;;;;;;;5.40;2.40;;;;;;;6.02;81.68;98509.07;105464;1253;73132;-23
2023/10/16 09:37:15;;;;;;;7.80;3.20;;;;;;;5.84;82.92;98507.90;105249;1253;61359;-23
2023/10/16 09:39:40;;;;;;;3.60;2.20;;;;;;;5.79;83.96;98509.10;105419;1258;61477;-23
2023/10/16 09:42:12;;;;;;;3.40;2.30;;;;;;;6.26;82.23;98503.59;105523;1257;72083;-24
2023/10/16 09:44:56;;;;;;;3.70;2.90;;;;;;;6.34;81.58;98506.28;105268;1254;74058;-23
2023/10/16 09:47:26;;;;;;;8.70;3.60;;;;;;;6.31;81.48;98504.61;105286;1253;72693;-23
2023/10/16 09:49:58;;;;;;;5.90;3.20;;;;;;;6.09;82.51;98511.70;105545;1253;61194;-23
2023/10/16 09:52:32;;;;;;;6.10;2.90;;;;;;;5.91;83.55;98503.61;105432;1258;61551;-23
2023/10/16 09:54:59;;;;;;;2.60;1.80;;;;;;;5.82;84.40;98515.56;105523;1253;73793;-23
2023/10/16 09:57:30;;;;;;;3.40;1.50;;;;;;;6.19;83.17;98507.14;105659;1256;74366;-22
2023/10/16 10:00:16;;;;;;;3.90;1.90;;;;;;;6.17;82.42;98506.98;105409;1253;71689;-22
2023/10/16 10:02:43;;;;;;;5.00;2.20;;;;;;;6.13;83.75;98510.34;105467;1253;61134;-22
2023/10/16 10:05:11;;;;;;;5.40;2.80;;;;;;;6.00;84.76;98508.52;105322;1261;61264;-23
2023/10/16 10:07:47;;;;;;;3.40;1.90;;;;;;;5.96;85.60;98505.86;105729;1253;73853;-23
2023/10/16 10:13:08;;;;;;;2.50;1.80;;;;;;;6.77;81.49;98498.63;105370;1254;74078;-22
2023/10/16 10:15:44;;;;;;;2.70;2.40;;;;;;;6.71;81.65;98502.01;105397;1253;61164;-23
2023/10/16 10:19:01;;;;;;;4.70;2.30;;;;;;;6.47;82.45;98498.79;105665;1253;61062;-23
2023/10/16 10:21:11;;;;;;;6.30;2.00;;;;;;;6.09;83.21;98493.23;105654;1253;73603;-22
2023/10/16 10:23:41;;;;;;;2.60;1.40;;;;;;;6.15;83.07;98498.17;105690;1254;74194;-22
2023/10/16 10:26:08;;;;;;;2.70;1.70;;;;;;;6.44;82.43;98504.54;105841;1253;72678;-23
2023/10/16 10:28:38;;;;;;;3.40;1.40;;;;;;;6.42;82.11;98505.66;105821;1253;61141;-22
2023/10/16 10:31:05;;;;;;;4.00;1.80;;;;;;;6.30;82.81;98511.35;105741;1252;61288;-22
2023/10/16 10:33:42;;;;;;;5.50;2.40;;;;;;;6.17;83.13;98508.90;105782;1253;73781;-22
2023/10/16 10:36:27;;;;;;;3.50;1.60;;;;;;;6.11;84.05;98512.77;105556;1253;74005;-23
2023/10/16 10:39:25;;;;;;;4.70;1.90;;;;;;;6.38;82.82;98503.39;105802;1253;71355;-22
2023/10/16 10:41:54;;;;;;;2.20;1.80;;;;;;;6.34;82.59;98507.66;105665;1253;61445;-22
2023/10/16 10:44:37;;;;;;;2.60;2.00;;;;;;;6.24;83.98;98513.04;105435;1253;61129;-23
2023/10/16 10:47:24;;;;;;;3.90;1.80;;;;;;;6.03;85.11;98506.44;105599;1253;72825;-24
2023/10/16 10:49:52;;;;;;;2.00;1.70;;;;;;;6.18;86.37;98509.81;105512;1254;74410;-23
2023/10/16 10:52:20;;;;;;;3.10;1.80;;;;;;;6.48;85.58;98512.55;105571;1253;72709;-23
2023/10/16 10:54:58;;;;;;;6.20;1.60;;;;;;;6.49;85.70;98517.11;105549;1258;61108;-23
2023/10/16 10:57:25;;;;;;;2.20;1.60;;;;;;;6.36;86.29;98516.65;105527;1253;60999;-23
2023/10/16 10:59:56;;;;;;;2.20;1.40;;;;;;;6.07;87.98;98522.29;105824;1253;75414;-22
2023/10/16 11:04:59;;;;;;;;;;;;;;;6.60;86.47;98517.64;105741;1253;72815;-23
2023/10/16 11:10:22;;;;;;;2.60;1.70;;;;;;;6.29;87.50;98520.39;105414;1253;61185;-22
2023/10/16 11:12:50;;;;;;;1.20;1.00;;;;;;;6.16;88.11;98526.16;105724;1254;72784;-22
2023/10/16 11:15:19;;;;;;;1.80;1.50;;;;;;;6.41;87.56;98520.90;105894;1253;73688;-22
2023/10/16 11:17:46;;;;;;;2.00;1.30;;;;;;;6.50;86.87;98528.90;105627;1255;73153;-22
2023/10/16 11:22:46;;;;;;;2.30;1.50;;;;;;;6.15;87.92;98537.29;105698;1258;61678;-22
2023/10/16 11:25:13;;;;;;;1.00;0.90;;;;;;;6.20;88.69;98532.96;105611;1253;74396;-22
2023/10/16 11:27:44;;;;;;;2.00;1.50;;;;;;;6.48;87.17;98526.67;105707;1253;74628;-22
2023/10/16 11:30:15;;;;;;;2.90;1.40;;;;;;;6.60;86.57;98541.30;105838;1253;72636;-22
2023/10/16 11:32:45;;;;;;;2.60;1.70;;;;;;;6.40;86.91;98542.08;105663;1253;61135;-22
2023/10/16 11:35:15;;;;;;;1.90;1.60;;;;;;;6.25;87.86;98541.58;105878;1253;61054;-22
2023/10/16 11:37:50;;;;;;;3.00;1.40;;;;;;;6.22;88.27;98544.89;105674;1253;73341;-23
2023/10/16 11:40:18;;;;;;;3.50;1.60;;;;;;;6.59;87.30;98545.16;105661;1258;73368;-23
2023/10/16 11:42:46;;;;;;;2.90;1.70;;;;;;;6.61;86.21;98538.47;105781;1253;71647;-23
2023/10/16 11:45:20;;;;;;;2.90;2.00;;;;;;;6.50;86.35;98535.13;105652;1253;61091;-23
2023/10/16 11:50:40;;;;;;;3.10;1.60;;;;;;;6.38;87.37;98540.42;105776;1253;75702;-23
2023/10/16 11:53:07;;;;;;;2.90;2.20;;;;;;;6.71;85.89;98536.21;105661;1253;73313;-23
2023/10/16 11:55:36;;;;;;;2.80;1.90;;;;;;;6.61;84.84;98527.61;105686;1253;73717;-24
2023/10/16 11:58:11;;;;;;;3.20;2.40;;;;;;;6.56;85.50;98532.45;105676;1258;61154;-23
2023/10/16 12:00:45;;;;;;;4.00;2.50;;;;;;;6.44;86.41;98539.50;105630;1261;61504;-23
2023/10/16 12:03:14;;;;;;;2.30;1.50;;;;;;;6.38;86.65;98532.71;105738;1253;73488;-23
2023/10/16 12:05:42;;;;;;;2.10;1.90;;;;;;;6.56;85.65;98538.84;105782;1256;75842;-23
2023/10/16 12:08:10;;;;;;;3.30;2.20;;;;;;;6.80;84.68;98535.88;105481;1255;74159;-24
2023/10/16 12:10:37;;;;;;;2.90;2.50;;;;;;;6.81;84.93;98542.16;105656;1253;61332;-23
2023/10/16 12:13:04;;;;;;;3.60;2.50;;;;;;;6.83;84.64;98536.70;105852;1258;61566;-23
2023/10/16 12:15:31;;;;;;;3.50;2.10;;;;;;;6.59;84.40;98533.96;105703;1253;73792;-22
2023/10/16 12:18:01;;;;;;;3.30;2.00;;;;;;;6.80;83.72;98538.11;105627;1254;75013;-23
2023/10/16 12:20:28;;;;;;;2.30;2.10;;;;;;;7.06;82.21;98533.77;105814;1253;72685;-23
2023/10/16 12:22:55;;;;;;;3.60;2.50;;;;;;;6.98;82.71;98545.95;105663;1253;61055;-23
2023/10/16 12:25:23;;;;;;;4.20;2.70;;;;;;;6.84;83.07;98553.19;105650;1259;61118;-23
2023/10/16 12:27:53;;;;;;;2.90;1.90;;;;;;;6.75;84.16;98552.47;105857;1253;73790;-23
2023/10/16 12:30:20;;;;;;;2.80;1.90;;;;;;;7.02;84.27;98563.77;105692;1253;74022;-23
2023/10/16 12:32:47;;;;;;;3.50;2.60;;;;;;;7.17;83.77;98564.69;105813;1254;74308;-23
2023/10/16 12:35:18;;;;;;;3.70;2.10;;;;;;;6.95;83.89;98563.64;105680;1256;61384;-23
2023/10/16 12:37:45;;;;;;;4.40;3.20;;;;;;;6.70;84.93;98564.05;105653;1261;61634;-23
2023/10/16 12:40:27;;;;;;;2.40;1.80;;;;;;;6.42;86.81;98573.44;105469;1258;73142;-23
2023/10/16 12:42:55;;;;;;;2.80;2.10;;;;;;;6.71;86.65;98580.52;105862;1257;74013;-23
2023/10/16 12:45:25;;;;;;;3.30;2.10;;;;;;;6.95;85.87;98584.96;105632;1253;73106;-23
2023/10/16 12:47:56;;;;;;;4.70;2.10;;;;;;;6.87;85.28;98581.45;105618;1253;3276656;-23
2023/10/16 12:50:27;;;;;;;4.00;2.50;;;;;;;6.65;85.55;98579.86;105719;1252;61082;-21
2023/10/16 12:52:54;;;;;;;2.20;1.50;;;;;;;6.38;84.96;98571.16;105627;1257;61710;-21
2023/10/16 12:55:24;;;;;;;2.00;1.70;;;;;;;6.77;84.57;98580.27;105432;1253;74170;-21
2023/10/16 12:57:54;;;;;;;5.40;2.30;;;;;;;7.01;84.02;98578.64;105658;1253;75387;-21
2023/10/16 13:00:23;;;;;;;3.30;2.40;;;;;;;6.85;83.87;98577.98;105580;1253;74069;-21
2023/10/16 13:02:51;;;;;;;3.60;2.40;;;;;;;6.68;84.49;98581.89;105611;1259;61229;-21
2023/10/16 13:05:18;;;;;;;2.80;1.70;;;;;;;6.53;85.37;98581.16;105730;1258;61646;-21
2023/10/16 13:08:23;;;;;;;4.00;2.60;;;;;;;6.88;84.85;98578.73;102687;1291;600746;-20
2023/10/16 13:10:52;;;;;;;4.10;2.50;;;;;;;7.17;83.03;98585.98;104757;1267;61244;-21
2023/10/16 13:13:21;;;;;;;3.70;2.70;;;;;;;7.00;82.92;98586.88;104867;1271;62287;-22
2023/10/16 13:23:18;;;;;;;3.90;2.20;;;;;;;7.34;82.43;98607.34;102569;1292;600285;-20
2023/10/16 13:26:08;;;;;;;2.60;2.10;;;;;;;7.33;81.33;98608.80;104821;1268;61081;-20
2023/10/16 13:28:37;;;;;;;4.30;2.50;;;;;;;7.15;81.68;98604.59;104755;1266;61194;-22
2023/10/16 13:31:04;;;;;;;3.40;2.70;;;;;;;6.94;82.73;98608.02;104765;1267;74529;-22
2023/10/16 13:33:32;;;;;;;3.50;1.90;;;;;;;6.82;83.11;98604.92;104805;1272;75251;-22
2023/10/16 13:43:17;;;;;;;3.90;2.40;;;;;;;7.18;80.49;98607.63;102726;1290;600299;-20
2023/10/16 13:45:45;;;;;;;3.60;2.30;;;;;;;6.86;80.77;98602.38;105078;1269;61167;-22
2023/10/16 13:48:16;;;;;;;3.00;2.00;;;;;;;6.95;81.58;98603.77;105039;1269;61856;-23
2023/10/16 13:50:47;;;;;;;4.70;2.20;;;;;;;7.50;79.93;98598.88;105083;1264;72564;-20
2023/10/16 13:53:15;;;;;;;3.40;2.00;;;;;;;7.88;78.33;98610.86;104897;1270;73064;-22
2023/10/16 13:55:43;;;;;;;4.50;2.80;;;;;;;7.81;77.81;98605.33;102497;1270;3263533;-24
2023/10/16 13:58:10;;;;;;;5.10;2.60;;;;;;;7.51;78.28;98607.23;104861;1272;61183;-23
2023/10/16 14:00:38;;;;;;;3.30;1.90;;;;;;;7.44;78.36;98602.20;105181;1262;61172;-23
2023/10/16 14:05:50;;;;;;;3.80;1.80;;;;;;;7.68;78.70;98617.05;105061;1269;76429;-22
2023/10/16 14:18:40;;;;;;;4.30;2.50;;;;;;;7.45;77.88;98635.82;102826;1294;601130;-22
2023/10/16 14:21:10;;;;;;;2.20;1.20;;;;;;;7.28;78.71;98640.03;104715;1269;63308;-23
2023/10/16 14:23:42;;;;;;;5.00;1.90;;;;;;;7.72;77.69;98638.02;104788;1274;61199;-23
2023/10/16 14:33:31;;;;;;;4.30;2.70;;;;;;;7.32;76.11;98628.86;102756;1290;601230;-22
2023/10/16 14:35:58;;;;;;;3.50;2.10;;;;;;;7.04;77.38;98634.39;104872;1272;62183;-23
2023/10/16 14:46:10;;;;;;;5.10;1.90;;;;;;;7.07;75.80;98644.85;102659;1293;599969;-22
2023/10/16 14:48:42;;;;;;;6.20;2.50;;;;;;;6.97;76.57;98653.23;104849;1267;62349;-21
2023/10/16 14:51:14;;;;;;;2.10;1.40;;;;;;;6.72;77.36;98658.80;104829;1267;62339;-22
2023/10/16 14:53:43;;;;;;;4.10;2.00;;;;;;;6.62;77.97;98659.13;104828;1271;71590;-23